Pulpca — PHMT — position and weather

sailwx.info

Track history (hours):
 
Tides and Currents Weather Stations Pressure Air Temp Water Temp Dewpoint Dewpoint Depression Visibility Wind Speed Wind Dir Waves Ship Positions

Pulpca

Last reported at 2016-Feb-11 20:33 UTC. Time now 2016-Feb-11 21:15 UTC.
Position N 55°11' E 014°15'.

Length 205 m; draft 7.1 m.

Type: Ship (hazmat cat A). MMSI: 245097000.

Date/timePositionNaut miles runAvg speedWind from/ knotsBaromVisibWave heightAir tempDewpointWater temp
2016-Feb-11 20:33N 55°11' E 014°15'1817.9
2016-Feb-11 19:33N 55°25' E 014°35'1818.4
2016-Feb-11 18:34N 55°34' E 015°04'359 9.3
2016-Feb-10 04:05N 59°45' E 023°02'713.0
2016-Feb-10 03:34N 59°42' E 023°14'1312.1
2016-Feb-10 02:30N 59°42' E 023°39'7511.8
2016-Feb-09 20:10N 59°57' E 026°05'712.0
2016-Feb-09 19:33N 59°59' E 026°19'1211.7
2016-Feb-09 18:33N 60°01' E 026°42'1211.6
2016-Feb-09 17:33N 60°01' E 027°06'3410.9
2016-Feb-09 14:28N 60°09' E 028°11'1111.8
2016-Feb-09 13:33N 60°03' E 028°30'1211.6
2016-Feb-09 12:33N 60°03' E 028°53'2611.3
2016-Feb-09 10:13N 59°59' E 029°45'811.2
2016-Feb-09 09:33N 59°56' E 029°59'8 7.8
2016-Feb-09 08:33N 59°54' E 030°14'0 0.0
2016-Feb-09 07:32N 59°54' E 030°14'0 0.0
2016-Feb-09 06:29N 59°54' E 030°14'0 0.0
2016-Feb-09 05:32N 59°54' E 030°14'0 0.0
2016-Feb-09 04:32N 59°54' E 030°14'0 0.0
2016-Feb-09 03:32N 59°54' E 030°14'0 0.0
2016-Feb-09 02:32N 59°54' E 030°14'0 0.0
2016-Feb-09 01:32N 59°54' E 030°14'0 0.0
2016-Feb-09 00:32N 59°54' E 030°14'0 0.0
2016-Feb-08 23:32N 59°54' E 030°14'0 0.0
2016-Feb-08 22:32N 59°54' E 030°14'0 0.0
2016-Feb-08 21:32N 59°54' E 030°14'0 0.0
2016-Feb-08 20:32N 59°54' E 030°14'0 0.0
2016-Feb-08 19:32N 59°54' E 030°14'0 0.0
2016-Feb-08 18:32N 59°54' E 030°14'0 0.0
2016-Feb-08 17:32N 59°54' E 030°14'0 0.0
2016-Feb-08 16:32N 59°54' E 030°14'0 0.0
2016-Feb-08 15:32N 59°54' E 030°14'0 0.1
2016-Feb-08 14:33N 59°54' E 030°14'6 5.6
2016-Feb-08 13:33N 59°55' E 030°03'1211.6
2016-Feb-08 12:32N 59°60' E 029°41'12 9.9
2016-Feb-08 11:17N 60°02' E 029°17'911.7
2016-Feb-08 10:33N 60°02' E 028°59'1414.0
2016-Feb-08 09:33N 60°02' E 028°32'1413.8
2016-Feb-08 08:33N 60°08' E 028°07'1313.4
2016-Feb-08 07:33N 60°08' E 027°40'1514.5
2016-Feb-08 06:31N 60°01' E 027°14'1313.7
2016-Feb-08 05:33N 59°59' E 026°48'1414.0
2016-Feb-08 04:33N 59°57' E 026°20'4414.4
2016-Feb-08 01:31N 59°46' E 024°56'1414.5
2016-Feb-08 00:33N 59°44' E 024°28'2914.7
2016-Feb-07 22:33N 59°42' E 023°30'1414.0
2016-Feb-07 21:32N 59°45' E 023°03'5 1.3
2016-Feb-07 17:29N 59°49' E 022°56'33120.4
2016-Feb-07 01:13N 55°47' E 015°51'1421.1
2016-Feb-07 00:34N 55°40' E 015°29'2120.8
2016-Feb-06 23:33N 55°30' E 014°58'2020.5
2016-Feb-06 22:33N 55°17' E 014°29'2121.0
2016-Feb-06 21:33N 55°02' E 014°05'2121.1
2016-Feb-06 20:33N 54°55' E 013°30'2121.4
2016-Feb-06 19:34N 54°47' E 012°55'2419.9
2016-Feb-06 18:20N 54°34' E 012°19'1519.2
2016-Feb-06 17:33N 54°24' E 012°01'2120.7
2016-Feb-06 16:34N 54°14' E 011°30'13 0.9
2016-Feb-06 02:33N 54°08' E 011°10'1818.0
2016-Feb-06 01:33N 54°18' E 011°35'1817.8
2016-Feb-06 00:33N 54°26' E 012°03'1716.4
2016-Feb-05 23:33N 54°38' E 012°22'4217.8
2016-Feb-05 21:12N 54°57' E 013°27'1117.6
2016-Feb-05 20:33N 55°00' E 013°46'1717.2
2016-Feb-05 19:33N 55°09' E 014°12'1717.5
2016-Feb-05 18:33N 55°23' E 014°29'1817.7
2016-Feb-05 17:33N 55°32' E 014°56'1818.2
2016-Feb-05 16:33N 55°42' E 015°24'34117.7
2016-Feb-04 21:20N 59°40' E 022°60'10 0.8
2016-Feb-04 09:26N 59°49' E 022°57'0 0.0
2016-Feb-04 08:26N 59°49' E 022°57'0 0.0
2016-Feb-04 07:08N 59°49' E 022°57'0 0.0
2016-Feb-04 05:14N 59°49' E 022°57'1 0.9
2016-Feb-04 04:33N 59°49' E 022°56'34917.5
2016-Feb-03 08:33N 55°37' E 015°23'2221.9
2016-Feb-03 07:34N 55°27' E 014°50'1616.0
2016-Feb-03 06:33N 55°15' E 014°30'1817.8
2016-Feb-03 05:33N 55°03' E 014°08'1818.4
2016-Feb-03 04:33N 54°56' E 013°38'1918.3
2016-Feb-03 03:33N 54°49' E 013°08'1818.2
2016-Feb-03 02:33N 54°42' E 012°39'1817.8
2016-Feb-03 01:33N 54°30' E 012°16'1818.0
2016-Feb-03 00:33N 54°19' E 011°52'1918.6
2016-Feb-02 23:33N 54°11' E 011°24'  
Track history (hours):
 
Tides and Currents Weather Stations Pressure Air Temp Water Temp Dewpoint Dewpoint Depression Visibility Wind Speed Wind Dir Waves Ship Positions

Pulpca

Last reported at 2016-Feb-11 20:33 UTC. Time now 2016-Feb-11 21:15 UTC.
Position N 55°11' E 014°15'.

Length 205 m; draft 7.1 m.

Type: Ship (hazmat cat A). MMSI: 245097000.

Date/timePositionNaut miles runAvg speedWind from/ knotsBaromVisibWave heightAir tempDewpointWater temp
2016-Feb-11 20:33N 55°11' E 014°15'1817.9
2016-Feb-11 19:33N 55°25' E 014°35'1818.4
2016-Feb-11 18:34N 55°34' E 015°04'359 9.3
2016-Feb-10 04:05N 59°45' E 023°02'713.0
2016-Feb-10 03:34N 59°42' E 023°14'1312.1
2016-Feb-10 02:30N 59°42' E 023°39'7511.8
2016-Feb-09 20:10N 59°57' E 026°05'712.0
2016-Feb-09 19:33N 59°59' E 026°19'1211.7
2016-Feb-09 18:33N 60°01' E 026°42'1211.6
2016-Feb-09 17:33N 60°01' E 027°06'3410.9
2016-Feb-09 14:28N 60°09' E 028°11'1111.8
2016-Feb-09 13:33N 60°03' E 028°30'1211.6
2016-Feb-09 12:33N 60°03' E 028°53'2611.3
2016-Feb-09 10:13N 59°59' E 029°45'811.2
2016-Feb-09 09:33N 59°56' E 029°59'8 7.8
2016-Feb-09 08:33N 59°54' E 030°14'0 0.0
2016-Feb-09 07:32N 59°54' E 030°14'0 0.0
2016-Feb-09 06:29N 59°54' E 030°14'0 0.0
2016-Feb-09 05:32N 59°54' E 030°14'0 0.0
2016-Feb-09 04:32N 59°54' E 030°14'0 0.0
2016-Feb-09 03:32N 59°54' E 030°14'0 0.0
2016-Feb-09 02:32N 59°54' E 030°14'0 0.0
2016-Feb-09 01:32N 59°54' E 030°14'0 0.0
2016-Feb-09 00:32N 59°54' E 030°14'0 0.0
2016-Feb-08 23:32N 59°54' E 030°14'0 0.0
2016-Feb-08 22:32N 59°54' E 030°14'0 0.0
2016-Feb-08 21:32N 59°54' E 030°14'0 0.0
2016-Feb-08 20:32N 59°54' E 030°14'0 0.0
2016-Feb-08 19:32N 59°54' E 030°14'0 0.0
2016-Feb-08 18:32N 59°54' E 030°14'0 0.0
2016-Feb-08 17:32N 59°54' E 030°14'0 0.0
2016-Feb-08 16:32N 59°54' E 030°14'0 0.0
2016-Feb-08 15:32N 59°54' E 030°14'0 0.1
2016-Feb-08 14:33N 59°54' E 030°14'6 5.6
2016-Feb-08 13:33N 59°55' E 030°03'1211.6
2016-Feb-08 12:32N 59°60' E 029°41'12 9.9
2016-Feb-08 11:17N 60°02' E 029°17'911.7
2016-Feb-08 10:33N 60°02' E 028°59'1414.0
2016-Feb-08 09:33N 60°02' E 028°32'1413.8
2016-Feb-08 08:33N 60°08' E 028°07'1313.4
2016-Feb-08 07:33N 60°08' E 027°40'1514.5
2016-Feb-08 06:31N 60°01' E 027°14'1313.7
2016-Feb-08 05:33N 59°59' E 026°48'1414.0
2016-Feb-08 04:33N 59°57' E 026°20'4414.4
2016-Feb-08 01:31N 59°46' E 024°56'1414.5
2016-Feb-08 00:33N 59°44' E 024°28'2914.7
2016-Feb-07 22:33N 59°42' E 023°30'1414.0
2016-Feb-07 21:32N 59°45' E 023°03'5 1.3
2016-Feb-07 17:29N 59°49' E 022°56'33120.4
2016-Feb-07 01:13N 55°47' E 015°51'1421.1
2016-Feb-07 00:34N 55°40' E 015°29'2120.8
2016-Feb-06 23:33N 55°30' E 014°58'2020.5
2016-Feb-06 22:33N 55°17' E 014°29'2121.0
2016-Feb-06 21:33N 55°02' E 014°05'2121.1
2016-Feb-06 20:33N 54°55' E 013°30'2121.4
2016-Feb-06 19:34N 54°47' E 012°55'2419.9
2016-Feb-06 18:20N 54°34' E 012°19'1519.2
2016-Feb-06 17:33N 54°24' E 012°01'2120.7
2016-Feb-06 16:34N 54°14' E 011°30'13 0.9
2016-Feb-06 02:33N 54°08' E 011°10'1818.0
2016-Feb-06 01:33N 54°18' E 011°35'1817.8
2016-Feb-06 00:33N 54°26' E 012°03'1716.4
2016-Feb-05 23:33N 54°38' E 012°22'4217.8
2016-Feb-05 21:12N 54°57' E 013°27'1117.6
2016-Feb-05 20:33N 55°00' E 013°46'1717.2
2016-Feb-05 19:33N 55°09' E 014°12'1717.5
2016-Feb-05 18:33N 55°23' E 014°29'1817.7
2016-Feb-05 17:33N 55°32' E 014°56'1818.2
2016-Feb-05 16:33N 55°42' E 015°24'34117.7
2016-Feb-04 21:20N 59°40' E 022°60'10 0.8
2016-Feb-04 09:26N 59°49' E 022°57'0 0.0
2016-Feb-04 08:26N 59°49' E 022°57'0 0.0
2016-Feb-04 07:08N 59°49' E 022°57'0 0.0
2016-Feb-04 05:14N 59°49' E 022°57'1 0.9
2016-Feb-04 04:33N 59°49' E 022°56'34917.5
2016-Feb-03 08:33N 55°37' E 015°23'2221.9
2016-Feb-03 07:34N 55°27' E 014°50'1616.0
2016-Feb-03 06:33N 55°15' E 014°30'1817.8
2016-Feb-03 05:33N 55°03' E 014°08'1818.4
2016-Feb-03 04:33N 54°56' E 013°38'1918.3
2016-Feb-03 03:33N 54°49' E 013°08'1818.2
2016-Feb-03 02:33N 54°42' E 012°39'1817.8
2016-Feb-03 01:33N 54°30' E 012°16'1818.0
2016-Feb-03 00:33N 54°19' E 011°52'1918.6
2016-Feb-02 23:33N 54°11' E 011°24'  

Dump ship's entire track history